Time;durP1;ratioP1;P1;durP2;ratioP2;P2;SDS_P1;SDS_P2;PMS_P1;PMS_P2;Temp;Humidity;BMP_temperature;BMP_pressure;BME280_temperature;BME280_humidity;BME280_pressure;Samples;Min_cycle;Max_cycle;Signal;HPM_P1;HPM_P2
2020/12/01 00:01:11;;;;;;;19.02;5.55;;;26.20;93.20;;;;;;4996052;28;20034;-75
2020/12/01 00:03:40;;;;;;;15.55;5.32;;;26.20;94.20;;;;;;5018169;22;20081;-75
2020/12/01 00:06:08;;;;;;;18.63;5.57;;;26.40;93.50;;;;;;5007796;28;20026;-75
2020/12/01 00:08:39;;;;;;;14.15;5.35;;;26.70;93.50;;;;;;5010767;28;20049;-76
2020/12/01 00:11:07;;;;;;;20.20;5.22;;;26.70;93.10;;;;;;5006853;28;20069;-75
2020/12/01 00:13:35;;;;;;;17.30;5.22;;;26.40;93.00;;;;;;5018803;28;20032;-74
2020/12/01 00:16:02;;;;;;;17.50;5.13;;;25.90;93.60;;;;;;5033512;28;20026;-74
2020/12/01 00:18:30;;;;;;;12.07;4.88;;;25.40;94.00;;;;;;5016917;28;20066;-75
2020/12/01 00:20:57;;;;;;;13.98;4.80;;;25.90;94.30;;;;;;5010611;28;20120;-75
2020/12/01 00:23:24;;;;;;;18.67;5.10;;;26.70;94.20;;;;;;5004760;28;20188;-75
2020/12/01 00:25:53;;;;;;;18.60;5.55;;;26.60;92.90;;;;;;5009364;28;20505;-74
2020/12/01 00:28:20;;;;;;;13.85;3.85;;;26.70;93.40;;;;;;5007070;28;20038;-74
2020/12/01 00:30:47;;;;;;;15.57;4.28;;;27.00;92.70;;;;;;5007902;28;20026;-73
2020/12/01 00:33:15;;;;;;;16.55;4.25;;;27.10;93.30;;;;;;5014205;28;20124;-74
2020/12/01 00:35:42;;;;;;;15.48;4.40;;;27.00;92.70;;;;;;5022837;23;20057;-74
2020/12/01 00:38:10;;;;;;;12.52;3.83;;;26.70;92.90;;;;;;5010678;28;20411;-75
2020/12/01 00:40:37;;;;;;;10.73;3.67;;;27.00;92.90;;;;;;5009889;28;20022;-74
2020/12/01 00:43:04;;;;;;;14.95;4.63;;;27.10;92.70;;;;;;5009121;28;20501;-74
2020/12/01 00:45:32;;;;;;;14.20;3.78;;;26.90;92.20;;;;;;5010653;28;20022;-74
2020/12/01 00:47:59;;;;;;;14.02;3.92;;;27.40;93.00;;;;;;5010636;28;20029;-74
2020/12/01 00:50:27;;;;;;;11.98;3.58;;;27.40;91.90;;;;;;5010237;28;20045;-75
2020/12/01 00:52:54;;;;;;;19.23;4.45;;;27.40;92.50;;;;;;5008018;28;20022;-74
2020/12/01 00:55:22;;;;;;;17.60;4.97;;;27.80;92.80;;;;;;5009043;28;20175;-77
2020/12/01 00:57:49;;;;;;;16.20;5.25;;;27.70;92.10;;;;;;5011730;28;20027;-75
2020/12/01 01:00:26;;;;;;;10.18;3.45;;;27.50;91.90;;;;;;5007765;28;20021;-76
2020/12/01 01:02:53;;;;;;;15.07;3.95;;;27.60;91.80;;;;;;5008629;28;20042;-76
2020/12/01 01:05:22;;;;;;;14.65;3.95;;;27.80;92.50;;;;;;5006715;28;20034;-76
2020/12/01 01:07:50;;;;;;;16.10;3.95;;;27.90;92.40;;;;;;5009239;28;20032;-77
2020/12/01 01:10:23;;;;;;;14.98;3.58;;;28.00;91.90;;;;;;5004938;28;20077;-76
2020/12/01 01:12:51;;;;;;;13.27;3.80;;;28.10;91.70;;;;;;5011836;28;20053;-75
2020/12/01 01:15:18;;;;;;;12.95;3.85;;;28.00;91.80;;;;;;5009779;28;20022;-75
2020/12/01 01:17:46;;;;;;;14.45;3.75;;;28.50;91.00;;;;;;5010604;28;20030;-75
2020/12/01 01:20:13;;;;;;;11.52;2.95;;;28.10;90.70;;;;;;5008280;28;20037;-74
2020/12/01 01:22:40;;;;;;;12.15;3.58;;;27.90;91.00;;;;;;4999544;28;20056;-74
2020/12/01 01:25:08;;;;;;;10.43;3.00;;;28.10;91.20;;;;;;5000162;28;20113;-75
2020/12/01 01:27:35;;;;;;;8.90;2.33;;;28.30;91.20;;;;;;4995513;28;20091;-76
2020/12/01 01:30:05;;;;;;;11.75;3.03;;;28.70;90.70;;;;;;5006674;28;20026;-76
2020/12/01 01:32:32;;;;;;;13.18;3.35;;;28.80;90.30;;;;;;5002153;28;20052;-74
2020/12/01 01:35:00;;;;;;;14.32;3.20;;;28.80;90.10;;;;;;5003731;28;20084;-79
2020/12/01 01:37:27;;;;;;;12.93;2.97;;;28.50;90.30;;;;;;5020396;22;20056;-79
2020/12/01 01:39:54;;;;;;;10.57;3.65;;;29.00;91.40;;;;;;4999686;23;20042;-74
2020/12/01 01:42:22;;;;;;;16.80;4.55;;;29.10;90.20;;;;;;5015111;22;20133;-76
2020/12/01 01:44:49;;;;;;;13.63;4.43;;;28.50;90.40;;;;;;5030066;22;20025;-75
2020/12/01 01:47:25;;;;;;;14.32;4.75;;;28.50;90.70;;;;;;5009371;28;20037;-77
2020/12/01 01:50:10;;;;;;;12.50;4.40;;;28.70;90.90;;;;;;5013628;28;20038;-76
2020/12/01 01:52:39;;;;;;;16.70;5.32;;;28.40;90.20;;;;;;5010001;28;20062;-76
2020/12/01 01:55:27;;;;;;;16.63;4.95;;;28.50;90.70;;;;;;5042033;22;20148;-75
2020/12/01 01:58:02;;;;;;;11.77;3.97;;;29.00;89.10;;;;;;5028290;28;20033;-78
2020/12/01 02:01:13;;;;;;;10.77;3.83;;;28.50;90.20;;;;;;5031731;28;20053;-74
2020/12/01 02:03:48;;;;;;;19.33;5.20;;;28.70;90.10;;;;;;5003505;28;20057;-77
2020/12/01 02:06:25;;;;;;;17.45;4.78;;;28.50;89.90;;;;;;5011795;28;20017;-76
2020/12/01 02:08:58;;;;;;;12.25;4.53;;;28.50;90.70;;;;;;5025110;28;20055;-78
2020/12/01 02:11:27;;;;;;;15.45;4.30;;;29.00;90.80;;;;;;5039179;22;20467;-76
2020/12/01 02:14:17;;;;;;;17.45;4.65;;;29.10;90.10;;;;;;5004084;28;20072;-80
2020/12/01 02:17:10;;;;;;;11.98;3.30;;;29.40;88.10;;;;;;5011678;28;20062;-77
2020/12/01 02:19:38;;;;;;;12.32;3.40;;;29.20;90.50;;;;;;5004213;28;20084;-75
2020/12/01 02:22:07;;;;;;;14.40;4.43;;;29.20;88.30;;;;;;5009843;28;20125;-78
2020/12/01 02:24:34;;;;;;;14.77;4.65;;;29.20;88.30;;;;;;5009788;28;20060;-75
2020/12/01 02:27:02;;;;;;;13.93;4.30;;;29.30;89.10;;;;;;5010203;28;20022;-75
2020/12/01 02:29:35;;;;;;;15.35;4.18;;;29.20;88.40;;;;;;5009231;28;20340;-77
2020/12/01 02:32:04;;;;;;;15.65;4.05;;;29.00;89.80;;;;;;5009576;28;20026;-75
2020/12/01 02:34:37;;;;;;;16.67;3.85;;;29.20;88.20;;;;;;5005329;28;20030;-74
2020/12/01 02:37:05;;;;;;;17.17;4.30;;;29.00;90.10;;;;;;4999944;28;20399;-75
2020/12/01 02:39:34;;;;;;;12.82;4.85;;;29.50;90.00;;;;;;5006020;28;20042;-75
2020/12/01 02:42:04;;;;;;;19.83;4.40;;;29.70;89.20;;;;;;5009616;28;20125;-75
2020/12/01 02:44:31;;;;;;;15.63;3.90;;;29.40;90.40;;;;;;5024576;22;20053;-74
2020/12/01 02:47:02;;;;;;;16.15;4.22;;;29.50;89.40;;;;;;5009936;28;20037;-78
2020/12/01 02:49:30;;;;;;;16.55;4.78;;;29.70;87.10;;;;;;5004711;28;20039;-76
2020/12/01 02:51:57;;;;;;;13.23;3.55;;;29.70;88.10;;;;;;5000687;28;20018;-77
2020/12/01 02:54:24;;;;;;;13.40;3.75;;;29.40;86.80;;;;;;5004071;28;20029;-75
2020/12/01 02:56:51;;;;;;;13.10;3.90;;;29.40;87.90;;;;;;5005786;28;20022;-77
2020/12/01 02:59:19;;;;;;;14.27;4.15;;;29.40;88.90;;;;;;5004104;28;20037;-77
2020/12/01 03:01:47;;;;;;;16.38;4.53;;;29.90;89.70;;;;;;5004890;28;20018;-77
2020/12/01 03:04:15;;;;;;;18.10;4.63;;;30.10;88.20;;;;;;4995787;28;20056;-77
2020/12/01 03:06:42;;;;;;;18.00;4.90;;;30.00;89.80;;;;;;5007827;28;20145;-77
2020/12/01 03:09:14;;;;;;;14.27;5.15;;;30.10;86.70;;;;;;4996618;28;20022;-77
2020/12/01 03:11:41;;;;;;;19.05;5.95;;;29.90;87.50;;;;;;5007638;28;20038;-76
2020/12/01 03:14:09;;;;;;;16.85;5.00;;;30.00;86.80;;;;;;5003051;28;20104;-77
2020/12/01 03:16:36;;;;;;;13.90;4.35;;;29.70;88.30;;;;;;5001796;28;20030;-77
2020/12/01 03:19:04;;;;;;;13.63;4.47;;;29.80;87.80;;;;;;5001726;28;20035;-74
2020/12/01 03:21:32;;;;;;;14.40;4.28;;;29.70;87.00;;;;;;5006039;28;20053;-77
2020/12/01 03:23:59;;;;;;;14.23;5.13;;;29.70;89.70;;;;;;4996365;28;20077;-77
2020/12/01 03:26:26;;;;;;;16.88;6.30;;;29.60;87.80;;;;;;5004762;28;20478;-76
2020/12/01 03:28:54;;;;;;;18.63;5.40;;;29.40;86.90;;;;;;5005052;28;20379;-77
2020/12/01 03:31:22;;;;;;;18.70;5.43;;;29.00;90.50;;;;;;5010804;28;20088;-76
2020/12/01 03:33:50;;;;;;;21.58;5.53;;;29.00;89.60;;;;;;5003493;28;20085;-77
2020/12/01 03:36:19;;;;;;;15.32;4.85;;;29.20;89.70;;;;;;5017752;28;20021;-77
2020/12/01 03:38:47;;;;;;;16.45;4.70;;;29.20;88.30;;;;;;5015619;28;20045;-76
2020/12/01 03:41:15;;;;;;;16.80;4.90;;;28.90;89.40;;;;;;5020265;28;20026;-76
2020/12/01 03:43:42;;;;;;;20.65;6.65;;;28.60;90.50;;;;;;5023455;28;20464;-78
2020/12/01 03:46:09;;;;;;;16.33;5.90;;;28.70;90.00;;;;;;5043522;22;20063;-74
2020/12/01 03:48:37;;;;;;;20.35;5.30;;;28.50;90.40;;;;;;5031217;22;20064;-74
2020/12/01 03:51:04;;;;;;;18.45;6.78;;;29.20;90.00;;;;;;5011058;22;20046;-75
2020/12/01 03:53:31;;;;;;;22.00;7.05;;;28.70;89.30;;;;;;4996756;28;20795;-74
2020/12/01 03:55:59;;;;;;;20.60;7.10;;;28.30;90.20;;;;;;5030473;22;20077;-79
2020/12/01 03:58:26;;;;;;;20.67;6.50;;;28.20;91.10;;;;;;5029789;28;20052;-77
2020/12/01 04:00:53;;;;;;;25.67;7.53;;;28.40;90.50;;;;;;5034254;28;20117;-79
2020/12/01 04:03:21;;;;;;;20.20;7.03;;;28.00;90.80;;;;;;5029554;28;20053;-76
2020/12/01 04:05:48;;;;;;;19.77;6.25;;;28.40;91.00;;;;;;5020438;22;20062;-77
2020/12/01 04:08:16;;;;;;;26.90;8.07;;;28.20;90.60;;;;;;4989682;28;20506;-78
2020/12/01 04:10:43;;;;;;;24.67;7.55;;;28.30;91.20;;;;;;4990002;28;20023;-77
2020/12/01 04:13:12;;;;;;;23.77;7.55;;;28.40;90.80;;;;;;4988633;28;20035;-78
2020/12/01 04:15:39;;;;;;;23.67;7.53;;;28.40;91.00;;;;;;4988092;28;20054;-77
2020/12/01 04:18:07;;;;;;;23.15;7.72;;;28.40;90.50;;;;;;4981259;28;20030;-77
2020/12/01 04:20:34;;;;;;;25.00;7.20;;;28.20;90.80;;;;;;5005112;23;20104;-79
2020/12/01 04:23:02;;;;;;;25.45;8.50;;;28.00;91.30;;;;;;5010644;28;20065;-77
2020/12/01 04:25:29;;;;;;;20.95;8.00;;;27.90;91.40;;;;;;5011648;28;20046;-77
2020/12/01 04:27:57;;;;;;;28.15;7.05;;;27.90;91.40;;;;;;5011672;28;20079;-78
2020/12/01 04:30:25;;;;;;;21.75;7.43;;;28.10;91.00;;;;;;5012740;28;20018;-78
2020/12/01 04:32:55;;;;;;;29.88;9.23;;;27.90;91.30;;;;;;5010787;28;20491;-77
2020/12/01 04:35:26;;;;;;;18.83;7.43;;;27.90;91.20;;;;;;5011238;28;20041;-77
2020/12/01 04:37:57;;;;;;;22.02;8.05;;;27.60;91.60;;;;;;5009443;28;20633;-77
2020/12/01 04:40:30;;;;;;;24.88;8.55;;;27.50;92.10;;;;;;5011572;28;20026;-78
2020/12/01 04:43:11;;;;;;;26.85;8.23;;;27.70;91.40;;;;;;5011410;28;20473;-79
2020/12/01 04:45:39;;;;;;;22.45;9.13;;;27.40;91.60;;;;;;5008033;28;20053;-77
2020/12/01 04:48:35;;;;;;;26.90;9.00;;;27.30;91.70;;;;;;5009429;28;20083;-78
2020/12/01 04:51:40;;;;;;;24.98;8.93;;;27.20;91.90;;;;;;5001241;28;20042;-77
2020/12/01 04:54:13;;;;;;;23.50;8.57;;;27.20;91.90;;;;;;5014645;22;20124;-77
2020/12/01 04:56:54;;;;;;;26.15;8.43;;;27.40;92.20;;;;;;5003187;28;20480;-78
2020/12/01 04:59:33;;;;;;;23.42;9.27;;;27.30;91.80;;;;;;5010161;28;20030;-78
2020/12/01 05:02:27;;;;;;;27.33;9.30;;;27.20;92.20;;;;;;5008062;28;20034;-78
2020/12/01 05:05:32;;;;;;;27.08;10.30;;;27.20;92.20;;;;;;5002629;28;20030;-77
2020/12/01 05:08:39;;;;;;;19.95;7.88;;;27.10;92.40;;;;;;4985576;28;20069;-78
2020/12/01 05:11:21;;;;;;;31.13;9.95;;;26.90;92.50;;;;;;5006032;28;20029;-78
2020/12/01 05:13:58;;;;;;;26.88;11.02;;;26.90;92.60;;;;;;5010737;28;20045;-78
2020/12/01 05:16:27;;;;;;;30.65;12.38;;;26.80;92.60;;;;;;5002348;28;20029;-79
2020/12/01 05:18:55;;;;;;;29.27;12.00;;;26.60;92.90;;;;;;5007046;28;20033;-77
2020/12/01 05:21:26;;;;;;;29.45;11.85;;;26.60;93.00;;;;;;5010849;28;20037;-78
2020/12/01 05:23:53;;;;;;;31.42;12.18;;;26.60;92.90;;;;;;5003999;28;20121;-79
2020/12/01 05:26:23;;;;;;;28.60;12.73;;;26.70;93.10;;;;;;5008860;28;20072;-79
2020/12/01 05:28:56;;;;;;;28.23;11.50;;;26.80;92.80;;;;;;5006556;28;20048;-79
2020/12/01 05:31:40;;;;;;;28.13;11.38;;;26.80;93.10;;;;;;5003941;28;20079;-77
2020/12/01 05:34:18;;;;;;;30.33;12.10;;;26.70;93.00;;;;;;4993500;28;20030;-79
2020/12/01 05:36:46;;;;;;;29.77;12.13;;;26.70;93.20;;;;;;5009541;28;20100;-82
2020/12/01 05:39:18;;;;;;;27.40;10.98;;;26.70;93.00;;;;;;5010608;28;20438;-81
2020/12/01 05:42:04;;;;;;;27.15;10.80;;;26.70;93.20;;;;;;5011453;28;20030;-82
2020/12/01 05:44:33;;;;;;;30.00;12.23;;;26.70;93.10;;;;;;5011077;28;20080;-83
2020/12/01 05:47:12;;;;;;;29.05;12.02;;;26.50;93.40;;;;;;5012663;28;20032;-82
2020/12/01 05:50:11;;;;;;;27.25;11.23;;;26.50;93.40;;;;;;5011329;28;20030;-78
2020/12/01 05:53:01;;;;;;;35.65;12.50;;;26.60;93.10;;;;;;4994733;28;20102;-78
2020/12/01 05:55:29;;;;;;;34.60;12.98;;;26.60;93.30;;;;;;5021205;23;20057;-84
2020/12/01 06:00:24;;;;;;;29.65;13.07;;;26.40;93.40;;;;;;5040663;22;20088;-81
2020/12/01 06:03:28;;;;;;;34.17;14.48;;;26.40;93.70;;;;;;5029484;22;20038;-81
2020/12/01 06:05:59;;;;;;;28.48;11.45;;;26.20;93.80;;;;;;5011698;28;20033;-79
2020/12/01 06:08:44;;;;;;;37.38;12.38;;;26.10;93.80;;;;;;4991234;28;20033;-76
2020/12/01 06:13:46;;;;;;;38.22;14.07;;;26.20;94.20;;;;;;5023322;22;20061;-77
2020/12/01 06:16:42;;;;;;;27.27;11.73;;;26.30;93.90;;;;;;5010248;28;20172;-78
2020/12/01 06:19:09;;;;;;;25.92;11.98;;;26.20;93.90;;;;;;5006528;28;20553;-81
2020/12/01 06:22:01;;;;;;;31.98;12.80;;;26.10;94.00;;;;;;5012727;28;20034;-85
2020/12/01 06:24:58;;;;;;;29.25;12.23;;;25.90;94.60;;;;;;5013040;28;20101;-88
2020/12/01 06:30:54;;;;;;;36.78;14.88;;;25.90;94.50;;;;;;5019108;22;20411;-79
2020/12/01 06:33:39;;;;;;;39.58;16.70;;;25.90;94.50;;;;;;4995464;28;20151;-78
2020/12/01 06:36:37;;;;;;;33.20;16.27;;;25.90;94.40;;;;;;5003837;28;20033;-83
2020/12/01 06:39:20;;;;;;;31.45;14.45;;;25.90;94.40;;;;;;5016022;28;20113;-85
2020/12/01 06:41:55;;;;;;;32.90;13.48;;;25.90;94.40;;;;;;5010936;28;20049;-83
2020/12/01 06:44:26;;;;;;;35.63;13.88;;;25.70;94.70;;;;;;5026744;28;20030;-86
2020/12/01 06:46:57;;;;;;;32.15;15.70;;;25.50;95.10;;;;;;5031239;28;20026;-84
2020/12/01 06:49:30;;;;;;;39.08;14.65;;;25.50;95.10;;;;;;5010253;28;20399;-87
2020/12/01 06:52:19;;;;;;;33.95;14.50;;;25.40;95.00;;;;;;5003027;28;20076;-87
2020/12/01 06:54:56;;;;;;;34.72;14.40;;;25.50;95.20;;;;;;5007212;28;20396;-83
2020/12/01 06:57:33;;;;;;;27.23;13.80;;;25.40;95.40;;;;;;5007193;28;20036;-86
2020/12/01 07:00:02;;;;;;;36.28;13.88;;;25.30;95.50;;;;;;5007693;28;20382;-83
2020/12/01 07:02:38;;;;;;;31.15;13.38;;;25.30;95.50;;;;;;5019925;22;20263;-83
2020/12/01 07:05:12;;;;;;;38.03;14.75;;;25.20;95.80;;;;;;4988225;28;20023;-84
2020/12/01 07:07:44;;;;;;;35.40;14.52;;;25.10;95.80;;;;;;4993828;28;20026;-82
2020/12/01 07:10:29;;;;;;;34.85;15.32;;;25.00;96.00;;;;;;4991486;28;20105;-82
2020/12/01 07:13:24;;;;;;;35.03;14.02;;;25.00;96.00;;;;;;4989229;28;20042;-82
2020/12/01 07:15:52;;;;;;;30.40;14.60;;;25.00;96.10;;;;;;4991098;28;20034;-85
2020/12/01 07:18:30;;;;;;;40.75;17.42;;;25.00;96.20;;;;;;4988691;28;20037;-82
2020/12/01 07:21:15;;;;;;;129.82;111.28;;;24.90;96.20;;;;;;5026188;28;20105;-85
2020/12/01 07:24:06;;;;;;;60.92;35.83;;;24.80;96.30;;;;;;4994947;28;20416;-82
2020/12/01 07:26:58;;;;;;;38.55;18.10;;;24.70;96.50;;;;;;4993770;28;20035;-81
2020/12/01 07:29:49;;;;;;;43.00;16.50;;;24.60;96.90;;;;;;4991816;28;20098;-83
2020/12/01 07:32:32;;;;;;;37.83;15.75;;;24.60;96.90;;;;;;4975593;28;20035;-80
2020/12/01 07:35:29;;;;;;;36.15;18.75;;;24.50;97.00;;;;;;4994865;28;20031;-79
2020/12/01 07:38:01;;;;;;;37.83;15.23;;;24.60;97.10;;;;;;4992694;28;20033;-78
2020/12/01 07:40:41;;;;;;;35.33;14.93;;;24.80;96.80;;;;;;4994522;28;20106;-76
2020/12/01 07:43:14;;;;;;;33.75;13.75;;;24.90;96.60;;;;;;4986655;28;20031;-79
2020/12/01 07:45:41;;;;;;;35.60;13.85;;;25.00;96.30;;;;;;4995281;28;20031;-77
2020/12/01 07:48:14;;;;;;;36.50;13.52;;;25.00;96.30;;;;;;4993485;28;20403;-77
2020/12/01 07:50:42;;;;;;;44.08;14.38;;;24.90;97.90;;;;;;4993073;28;20022;-76
2020/12/01 07:53:18;;;;;;;42.63;15.50;;;24.40;99.60;;;;;;4992893;28;20165;-76
2020/12/01 07:56:00;;;;;;;38.88;15.82;;;24.00;99.90;;;;;;4995056;28;20049;-78
2020/12/01 07:58:30;;;;;;;40.28;14.70;;;23.60;99.90;;;;;;4991843;28;20026;-77
2020/12/01 08:01:03;;;;;;;44.60;15.43;;;23.50;99.90;;;;;;4994522;28;20574;-78
2020/12/01 08:03:34;;;;;;;39.67;14.00;;;23.30;99.90;;;;;;5041632;22;20050;-78
2020/12/01 08:06:13;;;;;;;50.95;16.00;;;23.30;99.90;;;;;;5038614;22;20057;-82
2020/12/01 08:08:44;;;;;;;42.78;14.95;;;23.20;99.90;;;;;;5011841;28;20180;-77
2020/12/01 08:11:14;;;;;;;43.95;16.85;;;23.10;99.90;;;;;;5031697;22;20084;-74
2020/12/01 08:13:43;;;;;;;44.75;14.48;;;22.90;99.90;;;;;;5009710;28;20593;-79
2020/12/01 08:16:27;;;;;;;42.55;14.77;;;22.90;99.90;;;;;;5013929;28;20041;-77
2020/12/01 08:18:55;;;;;;;43.42;16.13;;;22.90;99.90;;;;;;5022773;22;20503;-79
2020/12/01 08:21:44;;;;;;;47.17;16.63;;;22.70;99.90;;;;;;5013686;28;20034;-78
2020/12/01 08:24:32;;;;;;;57.97;18.50;;;22.50;99.90;;;;;;4997703;28;20443;-78
2020/12/01 08:27:22;;;;;;;37.63;15.55;;;22.50;99.90;;;;;;4994773;28;20093;-78
2020/12/01 08:29:53;;;;;;;46.60;17.80;;;22.60;99.90;;;;;;5011903;28;20368;-78
2020/12/01 08:32:37;;;;;;;39.88;16.25;;;22.70;99.90;;;;;;5012116;28;20026;-78
2020/12/01 08:35:25;;;;;;;41.65;15.48;;;22.70;99.90;;;;;;5003432;23;20041;-78
2020/12/01 08:38:03;;;;;;;56.38;17.95;;;22.70;99.90;;;;;;5005010;28;20018;-78
2020/12/01 08:41:19;;;;;;;64.40;17.73;;;22.80;99.90;;;;;;4997715;28;20026;-78
2020/12/01 08:44:05;;;;;;;56.45;17.23;;;22.80;99.90;;;;;;5010286;28;20652;-78
2020/12/01 08:46:33;;;;;;;53.88;17.92;;;22.70;99.90;;;;;;5013478;28;20022;-77
2020/12/01 08:49:40;;;;;;;58.25;17.50;;;22.80;99.90;;;;;;5011813;28;20042;-75
2020/12/01 08:52:24;;;;;;;52.95;17.77;;;22.70;99.90;;;;;;5009009;28;20034;-78
2020/12/01 08:54:58;;;;;;;46.95;16.17;;;22.70;99.90;;;;;;5010153;28;20025;-78
2020/12/01 08:57:38;;;;;;;51.83;17.77;;;22.80;99.90;;;;;;4993981;28;20030;-78
2020/12/01 09:00:14;;;;;;;60.58;19.35;;;22.70;99.90;;;;;;5013588;28;20026;-77
2020/12/01 09:02:45;;;;;;;53.58;17.55;;;22.50;99.90;;;;;;5009821;28;20491;-77
2020/12/01 09:05:34;;;;;;;53.70;17.00;;;22.60;99.90;;;;;;5010403;28;20038;-77
2020/12/01 09:10:32;;;;;;;62.05;19.23;;;22.30;99.90;;;;;;5025382;22;20136;-79
2020/12/01 09:13:26;;;;;;;63.83;19.48;;;22.10;99.90;;;;;;5016035;28;20030;-79
2020/12/01 09:18:54;;;;;;;58.65;17.85;;;22.10;99.90;;;;;;5011139;28;20030;-79
2020/12/01 09:24:29;;;;;;;53.72;18.98;;;22.00;99.90;;;;;;5010993;28;20038;-80
2020/12/01 09:27:02;;;;;;;64.35;21.77;;;22.10;99.90;;;;;;5011648;28;20026;-79
2020/12/01 09:29:29;;;;;;;45.28;19.02;;;22.10;99.90;;;;;;5010860;28;20033;-78
2020/12/01 09:31:57;;;;;;;61.20;19.67;;;22.10;99.90;;;;;;5003787;28;20542;-78
2020/12/01 09:34:24;;;;;;;51.17;20.38;;;22.20;99.90;;;;;;5007415;28;20034;-78
2020/12/01 09:37:03;;;;;;;52.17;20.00;;;22.20;99.90;;;;;;5012534;28;20118;-80
2020/12/01 09:39:32;;;;;;;58.30;18.98;;;22.30;99.90;;;;;;5010828;28;20080;-79
2020/12/01 09:42:08;;;;;;;58.03;18.45;;;22.40;99.90;;;;;;5010178;28;20490;-80
2020/12/01 09:44:52;;;;;;;64.30;20.35;;;22.40;99.90;;;;;;5010933;28;20030;-81
2020/12/01 09:47:29;;;;;;;74.50;21.60;;;22.30;99.90;;;;;;5009250;28;20026;-80
2020/12/01 09:49:56;;;;;;;54.17;18.63;;;22.30;99.90;;;;;;5011162;28;20298;-80
2020/12/01 09:52:33;;;;;;;53.10;18.95;;;22.30;99.90;;;;;;5010668;28;20022;-79
2020/12/01 09:55:10;;;;;;;45.35;18.17;;;22.30;99.90;;;;;;5009471;28;20036;-79
2020/12/01 09:57:54;;;;;;;45.53;17.35;;;22.40;99.90;;;;;;5010110;28;20057;-80
2020/12/01 10:34:28;;;;;;;41.90;12.70;;;22.50;99.90;;;;;;4998221;28;20036;-78
2020/12/01 10:36:56;;;;;;;51.15;12.98;;;22.50;99.90;;;;;;5005173;28;20060;-78
2020/12/01 10:39:25;;;;;;;41.10;11.82;;;22.50;99.90;;;;;;5009544;28;20052;-78
2020/12/01 10:41:52;;;;;;;46.58;13.23;;;22.50;99.90;;;;;;5006141;28;20033;-77
2020/12/01 10:44:21;;;;;;;42.47;12.13;;;22.50;99.90;;;;;;5024314;22;20046;-78
2020/12/01 10:46:50;;;;;;;49.25;12.45;;;22.50;99.90;;;;;;5008165;28;20029;-78
2020/12/01 10:49:18;;;;;;;52.60;12.15;;;22.50;99.90;;;;;;4989375;28;20030;-78
2020/12/01 10:51:50;;;;;;;46.53;13.25;;;22.50;99.90;;;;;;4994394;28;20144;-77
2020/12/01 10:54:18;;;;;;;36.22;10.57;;;22.50;99.90;;;;;;4990010;28;20514;-78
2020/12/01 10:56:51;;;;;;;47.80;12.00;;;22.50;99.90;;;;;;4991847;28;20080;-77
2020/12/01 10:59:21;;;;;;;34.30;11.25;;;22.50;99.90;;;;;;4990806;28;20053;-78
2020/12/01 11:01:48;;;;;;;39.75;11.98;;;22.50;99.90;;;;;;4994598;28;20026;-78
2020/12/01 11:04:16;;;;;;;48.13;12.25;;;22.50;99.90;;;;;;4991797;28;20555;-77
2020/12/01 11:06:44;;;;;;;39.67;11.75;;;22.50;99.90;;;;;;5001538;28;20045;-77
2020/12/01 11:09:12;;;;;;;41.85;11.32;;;22.50;99.90;;;;;;4993101;28;20061;-77
2020/12/01 11:11:39;;;;;;;41.17;11.68;;;22.50;99.90;;;;;;4994736;28;20077;-77
2020/12/01 11:14:08;;;;;;;39.03;12.43;;;22.40;99.90;;;;;;4993108;28;20435;-77
2020/12/01 11:16:36;;;;;;;32.15;9.25;;;22.40;99.90;;;;;;5012779;22;20050;-77
2020/12/01 11:19:04;;;;;;;37.20;10.63;;;22.40;99.90;;;;;;5008432;28;20371;-77
2020/12/01 11:21:35;;;;;;;33.42;9.30;;;22.50;99.90;;;;;;5006018;28;20025;-77
2020/12/01 11:24:03;;;;;;;34.85;8.73;;;22.50;99.90;;;;;;5012371;28;20034;-77
2020/12/01 11:26:30;;;;;;;33.00;9.10;;;22.60;99.90;;;;;;5010214;28;20022;-77
2020/12/01 11:28:57;;;;;;;30.77;8.73;;;22.60;99.90;;;;;;5008761;28;20026;-77
2020/12/01 11:31:25;;;;;;;28.60;8.30;;;22.70;99.90;;;;;;4995837;28;20022;-77
2020/12/01 11:34:07;;;;;;;34.25;8.02;;;22.70;99.90;;;;;;5010660;28;20495;-77
2020/12/01 11:36:36;;;;;;;30.90;8.32;;;22.70;99.90;;;;;;5014119;28;20037;-77
2020/12/01 11:39:06;;;;;;;21.30;7.40;;;22.70;99.90;;;;;;5007554;28;20073;-77
2020/12/01 11:41:33;;;;;;;27.95;8.23;;;22.70;99.90;;;;;;5014524;28;20054;-77
2020/12/01 11:44:01;;;;;;;21.58;6.90;;;22.70;99.90;;;;;;5012488;28;20139;-77
2020/12/01 11:46:28;;;;;;;24.35;7.10;;;22.70;99.90;;;;;;5014200;28;20045;-77
2020/12/01 11:48:55;;;;;;;24.42;7.97;;;22.70;99.90;;;;;;5010533;28;20030;-77
2020/12/01 11:51:32;;;;;;;24.88;6.63;;;22.70;99.90;;;;;;5013103;28;20108;-77
2020/12/01 11:53:59;;;;;;;25.13;8.18;;;22.60;99.90;;;;;;5012191;28;20022;-77
2020/12/01 11:56:27;;;;;;;30.45;7.75;;;22.60;99.90;;;;;;5014242;28;20478;-77
2020/12/01 11:58:55;;;;;;;21.27;6.85;;;22.60;99.90;;;;;;5012168;28;20026;-77
2020/12/01 12:01:22;;;;;;;23.08;7.22;;;22.60;99.90;;;;;;5012883;28;20032;-77
2020/12/01 12:03:49;;;;;;;25.48;6.78;;;22.70;99.90;;;;;;5008388;28;20588;-78
2020/12/01 12:06:17;;;;;;;21.02;6.68;;;22.70;99.90;;;;;;4995128;28;20057;-78
2020/12/01 12:08:45;;;;;;;17.00;6.22;;;22.70;99.90;;;;;;5009796;28;20482;-77
2020/12/01 12:11:13;;;;;;;15.23;5.40;;;22.70;99.90;;;;;;5012914;28;20045;-77
2020/12/01 12:13:45;;;;;;;12.50;5.07;;;22.60;99.90;;;;;;5000819;28;20023;-77
2020/12/01 12:18:38;;;;;;;17.52;5.57;;;22.70;99.90;;;;;;5042439;22;20081;-77
2020/12/01 12:21:06;;;;;;;20.50;6.47;;;22.80;99.90;;;;;;5034092;22;20068;-77
2020/12/01 12:23:33;;;;;;;21.75;6.97;;;22.90;99.90;;;;;;5006510;28;20030;-77
2020/12/01 12:26:00;;;;;;;25.83;6.35;;;22.80;99.90;;;;;;5027127;22;20104;-78
2020/12/01 12:28:28;;;;;;;23.08;5.88;;;22.80;99.90;;;;;;4993291;28;20026;-77
2020/12/01 12:30:55;;;;;;;18.25;5.65;;;22.80;99.90;;;;;;4994602;28;20022;-77
2020/12/01 12:33:23;;;;;;;16.98;5.82;;;22.80;99.90;;;;;;5017618;22;20053;-77
2020/12/01 12:35:51;;;;;;;20.05;7.30;;;22.70;99.90;;;;;;5020793;28;20029;-77
2020/12/01 12:38:21;;;;;;;19.25;6.78;;;22.80;99.90;;;;;;5010761;28;20037;-77
2020/12/01 12:40:48;;;;;;;21.15;6.93;;;22.80;99.90;;;;;;5009038;28;20018;-77
2020/12/01 12:43:17;;;;;;;17.92;6.75;;;22.80;99.90;;;;;;5003178;28;20121;-77
2020/12/01 12:45:44;;;;;;;19.67;7.55;;;22.80;99.90;;;;;;5002359;28;20118;-78
2020/12/01 12:48:12;;;;;;;22.02;7.80;;;22.80;99.90;;;;;;5009088;28;20104;-77
2020/12/01 12:50:40;;;;;;;17.10;6.25;;;22.80;99.90;;;;;;5020365;22;20057;-78
2020/12/01 12:53:07;;;;;;;18.23;6.30;;;22.80;99.90;;;;;;5022495;28;20026;-77
2020/12/01 12:55:34;;;;;;;21.08;6.53;;;22.80;99.90;;;;;;5021611;28;20120;-77
2020/12/01 12:58:02;;;;;;;16.52;5.80;;;22.90;99.90;;;;;;5015951;28;20083;-77
2020/12/01 13:00:33;;;;;;;18.38;6.15;;;22.90;99.90;;;;;;5018128;28;20014;-77
2020/12/01 13:03:01;;;;;;;22.55;6.72;;;22.80;99.90;;;;;;5016608;28;20071;-77
2020/12/01 13:05:29;;;;;;;12.68;5.78;;;22.80;99.90;;;;;;5015736;28;20037;-77
2020/12/01 13:07:57;;;;;;;22.98;6.72;;;22.80;99.90;;;;;;5011789;28;20430;-77
2020/12/01 13:10:25;;;;;;;17.08;5.68;;;22.80;99.90;;;;;;5010582;28;20049;-77
2020/12/01 13:12:53;;;;;;;17.40;5.50;;;22.80;99.90;;;;;;5013613;28;20022;-77
2020/12/01 13:15:21;;;;;;;19.05;6.43;;;22.80;99.90;;;;;;5013800;28;20022;-77
2020/12/01 13:17:48;;;;;;;19.75;6.18;;;22.70;99.90;;;;;;5012056;28;20072;-77
2020/12/01 13:20:19;;;;;;;19.95;6.97;;;22.60;99.90;;;;;;5027502;28;20034;-77
2020/12/01 13:22:46;;;;;;;24.90;7.95;;;22.60;99.90;;;;;;5028879;22;20188;-77
2020/12/01 13:25:14;;;;;;;20.38;6.90;;;22.60;99.90;;;;;;4995866;28;20034;-77
2020/12/01 13:27:41;;;;;;;20.60;7.20;;;22.70;99.90;;;;;;4988929;28;20026;-78
2020/12/01 13:30:11;;;;;;;20.75;7.28;;;22.70;99.90;;;;;;4991667;28;20112;-78
2020/12/01 13:32:39;;;;;;;23.10;7.45;;;22.70;99.90;;;;;;4990352;28;20026;-77
2020/12/01 13:35:08;;;;;;;22.55;9.00;;;22.70;99.90;;;;;;4992422;28;20026;-78
2020/12/01 13:37:36;;;;;;;22.70;7.38;;;22.70;99.90;;;;;;4990299;28;20400;-77
2020/12/01 13:40:07;;;;;;;27.48;8.60;;;22.70;99.90;;;;;;4993425;28;20129;-78
2020/12/01 13:42:34;;;;;;;24.83;9.13;;;22.70;99.90;;;;;;4990289;28;20046;-78
2020/12/01 13:45:01;;;;;;;20.65;7.20;;;22.60;99.90;;;;;;4992105;28;20031;-77
2020/12/01 13:47:28;;;;;;;22.65;7.80;;;22.60;99.90;;;;;;4990093;28;20041;-78
2020/12/01 13:49:56;;;;;;;18.77;8.30;;;22.60;99.90;;;;;;4992547;28;20033;-77
2020/12/01 13:52:23;;;;;;;23.88;9.20;;;22.50;99.90;;;;;;4989046;28;20034;-77
2020/12/01 13:54:50;;;;;;;29.67;9.15;;;22.50;99.90;;;;;;4984809;28;20038;-77